Maersk Windhoek — 3FWJ3 — position and weather

sailwx.info

Track history (hours):
 
Tides and Currents Weather Stations Pressure Air Temp Water Temp Dewpoint Dewpoint Depression Visibility Wind Speed Wind Dir Waves Ship Positions

Maersk Windhoek

Last reported at 2014-Oct-18 05:08 UTC. Time now 2014-Oct-21 13:47 UTC.
Position N 37°34' E 005°07'.

Length 172 m; draft 9.6 m.

Type: Ship (hazmat cat C). MMSI: 370431000.

Date/timePositionNaut miles runAvg speedWind from/ knotsBaromVisibWave heightAir tempDewpointWater temp
2014-Oct-18 05:08N 37°34' E 005°07'1017.2
2014-Oct-18 04:33N 37°44' E 005°07'1716.9
2014-Oct-18 03:33N 38°01' E 005°07'1916.9
2014-Oct-18 02:25N 38°20' E 005°06'1517.1
2014-Oct-18 01:33N 38°35' E 005°06'6716.7
2014-Oct-17 21:33N 39°42' E 005°04'1816.6
2014-Oct-17 20:30N 39°59' E 005°04'2016.6
2014-Oct-17 19:16N 40°20' E 005°03'1216.4
2014-Oct-17 18:33N 40°32' E 005°03'1917.0
2014-Oct-17 17:25N 40°51' E 005°04'1916.9
2014-Oct-17 16:16N 41°10' E 005°05'1217.1
2014-Oct-17 15:33N 41°22' E 005°05'1717.1
2014-Oct-17 14:33N 41°39' E 005°04'1817.7
2014-Oct-17 13:32N 41°58' E 005°04'1717.2
2014-Oct-17 12:32N 42°15' E 005°03'1717.1
2014-Oct-17 11:33N 42°31' E 005°01'1917.4
2014-Oct-17 10:28N 42°50' E 005°00'1617.3
2014-Oct-17 09:33N 43°06' E 005°00'1615.8
2014-Oct-17 08:34N 43°22' E 004°57'6 6.3
2014-Oct-17 07:33N 43°25' E 004°50'0 0.0
2014-Oct-17 06:33N 43°25' E 004°50'0 0.0
2014-Oct-17 05:33N 43°25' E 004°50'0 0.0
2014-Oct-17 04:33N 43°25' E 004°50'0 0.0
2014-Oct-17 03:33N 43°25' E 004°50'0 0.0
2014-Oct-17 02:33N 43°25' E 004°50'0 0.3
2014-Oct-17 01:34N 43°25' E 004°50'7 7.4
2014-Oct-17 00:34N 43°21' E 004°59'8 7.6
2014-Oct-16 23:33N 43°14' E 005°01'1313.2
2014-Oct-16 22:33N 43°05' E 004°48'1715.9
2014-Oct-16 21:31N 42°54' E 004°30'1616.2
2014-Oct-16 20:33N 42°45' E 004°14'1716.6
2014-Oct-16 19:32N 42°34' E 003°55'1414.3
2014-Oct-16 18:32N 42°25' E 003°40'1414.7
2014-Oct-16 17:33N 42°14' E 003°29'1615.5
2014-Oct-16 16:31N 41°58' E 003°24'1414.6
2014-Oct-16 15:33N 41°47' E 003°13'1615.9
2014-Oct-16 14:33N 41°38' E 002°55'1716.6
2014-Oct-16 13:33N 41°28' E 002°38'1616.0
2014-Oct-16 12:33N 41°17' E 002°22'9 9.0
2014-Oct-16 11:33N 41°19' E 002°10'1 0.9
2014-Oct-16 10:33N 41°19' E 002°09'0 0.0
2014-Oct-16 09:28N 41°19' E 002°09'0 0.0
2014-Oct-16 08:10N 41°19' E 002°09'0 0.0
2014-Oct-16 07:28N 41°19' E 002°09'0 0.0
2014-Oct-16 06:28N 41°19' E 002°09'0 0.0
2014-Oct-16 05:28N 41°19' E 002°09'0 0.0
2014-Oct-16 03:22N 41°19' E 002°09'0 0.0
2014-Oct-16 02:22N 41°19' E 002°09'0 0.0
2014-Oct-16 01:23N 41°19' E 002°09'0 0.0
2014-Oct-16 00:28N 41°19' E 002°09'0 0.0
2014-Oct-15 23:28N 41°19' E 002°09'0 0.0
2014-Oct-15 22:29N 41°19' E 002°09'0 0.0
2014-Oct-15 21:07N 41°19' E 002°09'0 0.0
2014-Oct-15 20:29N 41°19' E 002°09'4 4.2
2014-Oct-15 19:33N 41°15' E 002°12'1413.4
2014-Oct-15 18:32N 41°03' E 002°03'1717.5
2014-Oct-15 17:33N 40°49' E 001°49'1717.6
2014-Oct-15 16:34N 40°36' E 001°36'1717.2
2014-Oct-15 15:34N 40°22' E 001°23'1717.2
2014-Oct-15 14:33N 40°07' E 001°11'1717.3
2014-Oct-15 13:33N 39°52' E 000°59'5416.4
2014-Oct-15 10:14N 39°27' W 000°04'1115.7
2014-Oct-15 09:33N 39°26' W 000°18'1 1.4
2014-Oct-15 08:32N 39°26' W 000°19'0 0.0
2014-Oct-15 07:29N 39°26' W 000°19'0 0.0
2014-Oct-15 06:26N 39°26' W 000°19'0 0.0
2014-Oct-15 05:32N 39°26' W 000°19'0 0.0
2014-Oct-15 04:32N 39°26' W 000°19'0 0.0
2014-Oct-15 03:32N 39°26' W 000°19'0 0.0
2014-Oct-15 02:32N 39°26' W 000°19'0 0.0
2014-Oct-15 01:32N 39°26' W 000°19'0 0.0
2014-Oct-15 00:32N 39°26' W 000°19'0 0.0
2014-Oct-14 23:32N 39°26' W 000°19'0 0.0
2014-Oct-14 22:32N 39°26' W 000°19'0 0.0
2014-Oct-14 21:32N 39°26' W 000°19'0 0.0
2014-Oct-14 20:32N 39°26' W 000°19'0 0.2
2014-Oct-14 19:33N 39°26' W 000°19'0 0.1
2014-Oct-14 18:31N 39°26' W 000°19'0 0.0
2014-Oct-14 17:31N 39°26' W 000°19'0 0.0
2014-Oct-14 16:31N 39°26' W 000°19'0 0.0
2014-Oct-14 15:28N 39°26' W 000°19'0 0.0
2014-Oct-14 14:31N 39°26' W 000°19'0 0.0
2014-Oct-14 13:28N 39°26' W 000°19'0 0.0
2014-Oct-14 12:31N 39°26' W 000°19'0 0.0
2014-Oct-14 11:31N 39°26' W 000°19'0 0.0
2014-Oct-14 10:28N 39°26' W 000°19'0 0.0
2014-Oct-14 09:31N 39°26' W 000°19'0 0.0
2014-Oct-14 08:32N 39°26' W 000°19'0 0.0
2014-Oct-14 07:31N 39°26' W 000°19'0 0.0
2014-Oct-14 06:31N 39°26' W 000°19'1 0.6
2014-Oct-14 05:33N 39°26' W 000°19'4 3.6
2014-Oct-14 04:34N 39°25' W 000°14'  
2014-Oct-10 10:33N 36°44' E 005°10'0 0.1
2014-Oct-10 06:17N 36°44' E 005°10'0 0.0
2014-Oct-09 20:29N 36°44' E 005°10'0 0.0
2014-Oct-09 17:05N 36°44' E 005°10'0 0.0
2014-Oct-09 06:08N 36°44' E 005°10'0 0.0
2014-Oct-09 05:29N 36°44' E 005°10'0 0.0
2014-Oct-09 03:20N 36°44' E 005°10'  
Track history (hours):
 
Tides and Currents Weather Stations Pressure Air Temp Water Temp Dewpoint Dewpoint Depression Visibility Wind Speed Wind Dir Waves Ship Positions

Maersk Windhoek

Last reported at 2014-Oct-18 05:08 UTC. Time now 2014-Oct-21 13:47 UTC.
Position N 37°34' E 005°07'.

Length 172 m; draft 9.6 m.

Type: Ship (hazmat cat C). MMSI: 370431000.

Date/timePositionNaut miles runAvg speedWind from/ knotsBaromVisibWave heightAir tempDewpointWater temp
2014-Oct-18 05:08N 37°34' E 005°07'1017.2
2014-Oct-18 04:33N 37°44' E 005°07'1716.9
2014-Oct-18 03:33N 38°01' E 005°07'1916.9
2014-Oct-18 02:25N 38°20' E 005°06'1517.1
2014-Oct-18 01:33N 38°35' E 005°06'6716.7
2014-Oct-17 21:33N 39°42' E 005°04'1816.6
2014-Oct-17 20:30N 39°59' E 005°04'2016.6
2014-Oct-17 19:16N 40°20' E 005°03'1216.4
2014-Oct-17 18:33N 40°32' E 005°03'1917.0
2014-Oct-17 17:25N 40°51' E 005°04'1916.9
2014-Oct-17 16:16N 41°10' E 005°05'1217.1
2014-Oct-17 15:33N 41°22' E 005°05'1717.1
2014-Oct-17 14:33N 41°39' E 005°04'1817.7
2014-Oct-17 13:32N 41°58' E 005°04'1717.2
2014-Oct-17 12:32N 42°15' E 005°03'1717.1
2014-Oct-17 11:33N 42°31' E 005°01'1917.4
2014-Oct-17 10:28N 42°50' E 005°00'1617.3
2014-Oct-17 09:33N 43°06' E 005°00'1615.8
2014-Oct-17 08:34N 43°22' E 004°57'6 6.3
2014-Oct-17 07:33N 43°25' E 004°50'0 0.0
2014-Oct-17 06:33N 43°25' E 004°50'0 0.0
2014-Oct-17 05:33N 43°25' E 004°50'0 0.0
2014-Oct-17 04:33N 43°25' E 004°50'0 0.0
2014-Oct-17 03:33N 43°25' E 004°50'0 0.0
2014-Oct-17 02:33N 43°25' E 004°50'0 0.3
2014-Oct-17 01:34N 43°25' E 004°50'7 7.4
2014-Oct-17 00:34N 43°21' E 004°59'8 7.6
2014-Oct-16 23:33N 43°14' E 005°01'1313.2
2014-Oct-16 22:33N 43°05' E 004°48'1715.9
2014-Oct-16 21:31N 42°54' E 004°30'1616.2
2014-Oct-16 20:33N 42°45' E 004°14'1716.6
2014-Oct-16 19:32N 42°34' E 003°55'1414.3
2014-Oct-16 18:32N 42°25' E 003°40'1414.7
2014-Oct-16 17:33N 42°14' E 003°29'1615.5
2014-Oct-16 16:31N 41°58' E 003°24'1414.6
2014-Oct-16 15:33N 41°47' E 003°13'1615.9
2014-Oct-16 14:33N 41°38' E 002°55'1716.6
2014-Oct-16 13:33N 41°28' E 002°38'1616.0
2014-Oct-16 12:33N 41°17' E 002°22'9 9.0
2014-Oct-16 11:33N 41°19' E 002°10'1 0.9
2014-Oct-16 10:33N 41°19' E 002°09'0 0.0
2014-Oct-16 09:28N 41°19' E 002°09'0 0.0
2014-Oct-16 08:10N 41°19' E 002°09'0 0.0
2014-Oct-16 07:28N 41°19' E 002°09'0 0.0
2014-Oct-16 06:28N 41°19' E 002°09'0 0.0
2014-Oct-16 05:28N 41°19' E 002°09'0 0.0
2014-Oct-16 03:22N 41°19' E 002°09'0 0.0
2014-Oct-16 02:22N 41°19' E 002°09'0 0.0
2014-Oct-16 01:23N 41°19' E 002°09'0 0.0
2014-Oct-16 00:28N 41°19' E 002°09'0 0.0
2014-Oct-15 23:28N 41°19' E 002°09'0 0.0
2014-Oct-15 22:29N 41°19' E 002°09'0 0.0
2014-Oct-15 21:07N 41°19' E 002°09'0 0.0
2014-Oct-15 20:29N 41°19' E 002°09'4 4.2
2014-Oct-15 19:33N 41°15' E 002°12'1413.4
2014-Oct-15 18:32N 41°03' E 002°03'1717.5
2014-Oct-15 17:33N 40°49' E 001°49'1717.6
2014-Oct-15 16:34N 40°36' E 001°36'1717.2
2014-Oct-15 15:34N 40°22' E 001°23'1717.2
2014-Oct-15 14:33N 40°07' E 001°11'1717.3
2014-Oct-15 13:33N 39°52' E 000°59'5416.4
2014-Oct-15 10:14N 39°27' W 000°04'1115.7
2014-Oct-15 09:33N 39°26' W 000°18'1 1.4
2014-Oct-15 08:32N 39°26' W 000°19'0 0.0
2014-Oct-15 07:29N 39°26' W 000°19'0 0.0
2014-Oct-15 06:26N 39°26' W 000°19'0 0.0
2014-Oct-15 05:32N 39°26' W 000°19'0 0.0
2014-Oct-15 04:32N 39°26' W 000°19'0 0.0
2014-Oct-15 03:32N 39°26' W 000°19'0 0.0
2014-Oct-15 02:32N 39°26' W 000°19'0 0.0
2014-Oct-15 01:32N 39°26' W 000°19'0 0.0
2014-Oct-15 00:32N 39°26' W 000°19'0 0.0
2014-Oct-14 23:32N 39°26' W 000°19'0 0.0
2014-Oct-14 22:32N 39°26' W 000°19'0 0.0
2014-Oct-14 21:32N 39°26' W 000°19'0 0.0
2014-Oct-14 20:32N 39°26' W 000°19'0 0.2
2014-Oct-14 19:33N 39°26' W 000°19'0 0.1
2014-Oct-14 18:31N 39°26' W 000°19'0 0.0
2014-Oct-14 17:31N 39°26' W 000°19'0 0.0
2014-Oct-14 16:31N 39°26' W 000°19'0 0.0
2014-Oct-14 15:28N 39°26' W 000°19'0 0.0
2014-Oct-14 14:31N 39°26' W 000°19'0 0.0
2014-Oct-14 13:28N 39°26' W 000°19'0 0.0
2014-Oct-14 12:31N 39°26' W 000°19'0 0.0
2014-Oct-14 11:31N 39°26' W 000°19'0 0.0
2014-Oct-14 10:28N 39°26' W 000°19'0 0.0
2014-Oct-14 09:31N 39°26' W 000°19'0 0.0
2014-Oct-14 08:32N 39°26' W 000°19'0 0.0
2014-Oct-14 07:31N 39°26' W 000°19'0 0.0
2014-Oct-14 06:31N 39°26' W 000°19'1 0.6
2014-Oct-14 05:33N 39°26' W 000°19'4 3.6
2014-Oct-14 04:34N 39°25' W 000°14'  
2014-Oct-10 10:33N 36°44' E 005°10'0 0.1
2014-Oct-10 06:17N 36°44' E 005°10'0 0.0
2014-Oct-09 20:29N 36°44' E 005°10'0 0.0
2014-Oct-09 17:05N 36°44' E 005°10'0 0.0
2014-Oct-09 06:08N 36°44' E 005°10'0 0.0
2014-Oct-09 05:29N 36°44' E 005°10'0 0.0
2014-Oct-09 03:20N 36°44' E 005°10'  

Dump ship's entire track history